APX969 KDAY-KCMH
Flight info
| Callsign | APX969 |
|---|---|
| Flight time | N/A |
| Altitude | 13000 |
| Route | NORTHEAST |
| Aircraft | C750/M-SBDE3FGHRWXY/S |
Departure
| Time | N/A |
|---|---|
| Airport | James M. Cox Dayton International Airport (KDAY) |
Arrival
| Time | 2026-05-09 01:25 |
|---|---|
| Airport | John Glenn Columbus International Airport (KCMH) |
| Time | Latitude | Longitude | Altitude | Speed | Heading |
|---|---|---|---|---|---|
| 2026-05-09 01:09 | 40.25576 | -83.03307 | 12488 ft | 320 kts | 79° |
| 2026-05-09 01:09 | 40.25951 | -83.00500 | 12430 ft | 305 kts | 79° |
| 2026-05-09 01:09 | 40.26326 | -82.97733 | 12688 ft | 310 kts | 79° |
| 2026-05-09 01:09 | 40.26704 | -82.94937 | 13021 ft | 315 kts | 78° |
| 2026-05-09 01:10 | 40.27082 | -82.92111 | 13020 ft | 314 kts | 78° |
| 2026-05-09 01:10 | 40.27458 | -82.89288 | 13026 ft | 315 kts | 78° |
| 2026-05-09 01:10 | 40.27834 | -82.86460 | 13022 ft | 315 kts | 78° |
| 2026-05-09 01:10 | 40.28212 | -82.83631 | 13018 ft | 315 kts | 78° |
| 2026-05-09 01:11 | 40.28591 | -82.80804 | 13017 ft | 315 kts | 78° |
| 2026-05-09 01:11 | 40.28970 | -82.77981 | 13005 ft | 315 kts | 78° |
| 2026-05-09 01:11 | 40.29350 | -82.75158 | 13008 ft | 315 kts | 78° |
| 2026-05-09 01:11 | 40.29733 | -82.72331 | 13011 ft | 315 kts | 78° |
| 2026-05-09 01:12 | 40.30116 | -82.69509 | 13016 ft | 315 kts | 78° |
| 2026-05-09 01:12 | 40.30500 | -82.66687 | 13014 ft | 314 kts | 78° |
| 2026-05-09 01:12 | 40.30884 | -82.63863 | 13014 ft | 315 kts | 78° |
| 2026-05-09 01:12 | 40.31269 | -82.61039 | 13014 ft | 315 kts | 78° |
| 2026-05-09 01:13 | 40.31656 | -82.58214 | 13014 ft | 315 kts | 78° |
| 2026-05-09 01:13 | 40.32042 | -82.55393 | 13013 ft | 315 kts | 78° |
| 2026-05-09 01:13 | 40.32371 | -82.52555 | 13001 ft | 316 kts | 84° |
| 2026-05-09 01:13 | 40.32267 | -82.49690 | 13010 ft | 315 kts | 98° |
| 2026-05-09 01:14 | 40.31785 | -82.46901 | 13011 ft | 313 kts | 109° |
| 2026-05-09 01:14 | 40.31082 | -82.44199 | 13022 ft | 313 kts | 112° |
| 2026-05-09 01:14 | 40.30344 | -82.41509 | 13022 ft | 313 kts | 112° |
| 2026-05-09 01:14 | 40.29538 | -82.38872 | 12953 ft | 310 kts | 123° |
| 2026-05-09 01:15 | 40.28056 | -82.36976 | 12914 ft | 293 kts | 158° |
| 2026-05-09 01:15 | 40.26147 | -82.36420 | 12719 ft | 277 kts | 191° |
| 2026-05-09 01:15 | 40.24422 | -82.37226 | 12423 ft | 257 kts | 217° |
| 2026-05-09 01:15 | 40.23000 | -82.38571 | 12233 ft | 250 kts | 223° |
| 2026-05-09 01:16 | 40.21637 | -82.39996 | 11828 ft | 251 kts | 224° |
| 2026-05-09 01:16 | 40.20282 | -82.41437 | 11164 ft | 253 kts | 224° |
| 2026-05-09 01:16 | 40.18978 | -82.42820 | 10447 ft | 230 kts | 224° |
| 2026-05-09 01:17 | 40.16479 | -82.45497 | 9513 ft | 229 kts | 224° |
| 2026-05-09 01:17 | 40.15257 | -82.46823 | 8964 ft | 228 kts | 224° |
| 2026-05-09 01:17 | 40.14069 | -82.48135 | 8458 ft | 226 kts | 224° |
| 2026-05-09 01:17 | 40.12870 | -82.49485 | 7944 ft | 223 kts | 226° |
| 2026-05-09 01:18 | 40.11819 | -82.50958 | 7422 ft | 221 kts | 231° |
| 2026-05-09 01:18 | 40.10875 | -82.52487 | 6980 ft | 218 kts | 234° |
| 2026-05-09 01:18 | 40.10022 | -82.54090 | 6652 ft | 212 kts | 236° |
| 2026-05-09 01:18 | 40.09185 | -82.55649 | 6357 ft | 208 kts | 235° |
| 2026-05-09 01:19 | 40.08339 | -82.57172 | 6081 ft | 206 kts | 234° |
| 2026-05-09 01:19 | 40.07525 | -82.58633 | 5799 ft | 194 kts | 234° |
| 2026-05-09 01:19 | 40.06732 | -82.60061 | 5555 ft | 195 kts | 235° |
| 2026-05-09 01:19 | 40.05923 | -82.61521 | 5290 ft | 200 kts | 235° |
| 2026-05-09 01:20 | 40.05090 | -82.62967 | 5019 ft | 198 kts | 230° |
| 2026-05-09 01:20 | 40.03960 | -82.63997 | 4761 ft | 201 kts | 210° |
| 2026-05-09 01:20 | 40.02702 | -82.64783 | 4511 ft | 196 kts | 210° |
| 2026-05-09 01:20 | 40.01534 | -82.65535 | 4324 ft | 178 kts | 210° |
| 2026-05-09 01:21 | 40.00436 | -82.66250 | 4104 ft | 176 kts | 210° |
| 2026-05-09 01:21 | 39.99515 | -82.67230 | 3850 ft | 170 kts | 233° |
| 2026-05-09 01:21 | 39.98970 | -82.68595 | 3648 ft | 170 kts | 244° |
| 2026-05-09 01:21 | 39.98462 | -82.69993 | 3426 ft | 171 kts | 244° |
| 2026-05-09 01:22 | 39.98246 | -82.71513 | 3184 ft | 174 kts | 269° |
| 2026-05-09 01:22 | 39.98353 | -82.73091 | 2963 ft | 176 kts | 272° |
| 2026-05-09 01:22 | 39.98413 | -82.74149 | 2807 ft | 177 kts | 272° |
| 2026-05-09 01:22 | 39.98501 | -82.75744 | 2568 ft | 173 kts | 272° |
| 2026-05-09 01:23 | 39.98584 | -82.77167 | 2337 ft | 143 kts | 272° |
| 2026-05-09 01:23 | 39.98654 | -82.78383 | 2147 ft | 130 kts | 273° |
| 2026-05-09 01:23 | 39.98720 | -82.79552 | 1983 ft | 129 kts | 272° |
| 2026-05-09 01:23 | 39.98787 | -82.80726 | 1821 ft | 130 kts | 273° |
| 2026-05-09 01:24 | 39.98855 | -82.81908 | 1656 ft | 132 kts | 273° |
| 2026-05-09 01:24 | 39.98923 | -82.83111 | 1474 ft | 133 kts | 274° |
| 2026-05-09 01:24 | 39.99000 | -82.84301 | 1321 ft | 131 kts | 274° |
| 2026-05-09 01:24 | 39.99074 | -82.85481 | 1151 ft | 131 kts | 274° |
| 2026-05-09 01:25 | 39.99124 | -82.86659 | 996 ft | 129 kts | 274° |
| 2026-05-09 01:25 | 39.99191 | -82.87828 | 832 ft | 125 kts | 274° |
| 2026-05-09 01:25 | 39.99246 | -82.88832 | 821 ft | 90 kts | 274° |
| 2026-05-09 01:25 | 39.99276 | -82.89401 | 820 ft | 47 kts | 274° |
| 2026-05-09 01:26 | 39.99302 | -82.89801 | 821 ft | 42 kts | 275° |
| 2026-05-09 01:26 | 39.99242 | -82.90000 | 821 ft | 16 kts | 177° |
| 2026-05-09 01:26 | 39.99198 | -82.89913 | 821 ft | 9 kts | 93° |
| 2026-05-09 01:26 | 39.99195 | -82.89834 | 821 ft | 9 kts | 94° |
| 2026-05-09 01:27 | 39.99190 | -82.89748 | 821 ft | 12 kts | 94° |
| 2026-05-09 01:27 | 39.99184 | -82.89643 | 821 ft | 11 kts | 95° |
| 2026-05-09 01:27 | 39.99178 | -82.89545 | 821 ft | 10 kts | 94° |
| 2026-05-09 01:27 | 39.99174 | -82.89454 | 821 ft | 10 kts | 94° |
| 2026-05-09 01:28 | 39.99169 | -82.89370 | 821 ft | 9 kts | 94° |
| 2026-05-09 01:28 | 39.99164 | -82.89279 | 821 ft | 10 kts | 94° |
| 2026-05-09 01:28 | 39.99150 | -82.89243 | 821 ft | 2 kts | 133° |
| 2026-05-09 01:28 | 39.99120 | -82.89226 | 821 ft | 7 kts | 180° |
| 2026-05-09 01:29 | 39.99065 | -82.89249 | 821 ft | 9 kts | 243° |
| 2026-05-09 01:29 | 39.99065 | -82.89283 | 821 ft | 0 kts | 273° |